CheckWX is a tool to help pilots better visualize weather data.  It is not intended as a substitute for an official pre-flight weather briefing.

04:41:58 UTC

KRIC TAF
Richmond International Airport
Richmond, Virginia, USA
KRIC 230411Z 2304/2324 28009KT P6SM SKC FM231400 29011G20KT P6SM SKC

Mar-23@
04:00 UTC

Mar-23 @ 04:00 UTC

Mar-23@
14:00 UTC

Mar-23 @ 14:00 UTC

KRIC 230411Z 2304/2324 28009KT P6SM SKC
Wind
  • 280° at 9 KTS
Cloud Levels
  • Clear skies

Mar-23@
14:00 UTC

Mar-23 @ 14:00 UTC

Mar-24@
00:00 UTC

Mar-24 @ 00:00 UTC

FM231400 29011G20KT P6SM SKC

From

From Standard forecast or significant change

Wind
  • 290° at 11 KTS
  • {Gusting to 20 KTS
Cloud Levels
  • Clear skies